createdAt,value
2017-09-13T00:00:00.635Z,16.85
2017-09-13T00:00:41.192Z,16.88
2017-09-13T00:01:21.718Z,16.89
2017-09-13T00:02:02.301Z,16.85
2017-09-13T00:02:42.917Z,16.91
2017-09-13T00:03:23.377Z,16.93
2017-09-13T00:04:03.958Z,16.82
2017-09-13T00:04:44.466Z,16.78
2017-09-13T00:05:25.050Z,16.81
2017-09-13T00:06:05.699Z,16.81
2017-09-13T00:06:46.183Z,16.76
2017-09-13T00:07:26.718Z,16.76
2017-09-13T00:08:07.328Z,16.85
2017-09-13T00:08:48.014Z,16.76
2017-09-13T00:09:28.519Z,16.79
2017-09-13T00:10:09.077Z,16.91
2017-09-13T00:10:49.591Z,16.88
2017-09-13T00:11:30.217Z,16.83
2017-09-13T00:12:10.777Z,16.79
2017-09-13T00:12:51.322Z,16.79
2017-09-13T00:13:31.956Z,16.79
2017-09-13T00:14:12.408Z,16.81
2017-09-13T00:14:52.975Z,16.76
2017-09-13T00:15:33.551Z,16.83
2017-09-13T00:16:14.104Z,16.78
2017-09-13T00:16:54.645Z,16.82
2017-09-13T00:17:35.240Z,16.73
2017-09-13T00:18:15.783Z,16.86
2017-09-13T00:18:56.322Z,16.81
2017-09-13T00:19:36.830Z,16.79
2017-09-13T00:20:17.381Z,16.83
2017-09-13T00:20:57.980Z,16.85
2017-09-13T00:21:38.549Z,16.82
2017-09-13T00:22:19.061Z,16.78
2017-09-13T00:22:59.552Z,16.71
2017-09-13T00:23:40.070Z,16.71
2017-09-13T00:24:20.627Z,16.67
2017-09-13T00:25:01.222Z,16.63
2017-09-13T00:25:41.758Z,16.64
2017-09-13T00:26:22.292Z,16.67
2017-09-13T00:27:02.845Z,16.66
2017-09-13T00:27:43.478Z,16.68
2017-09-13T00:28:24.022Z,16.53
2017-09-13T00:29:04.625Z,16.68
2017-09-13T00:29:45.221Z,16.63
2017-09-13T00:30:25.803Z,16.68
2017-09-13T00:31:06.475Z,16.76
2017-09-13T00:31:47.034Z,16.76
2017-09-13T00:32:27.642Z,16.7
2017-09-13T00:33:08.156Z,16.71
2017-09-13T00:33:48.858Z,16.64
2017-09-13T00:34:29.482Z,16.58
2017-09-13T00:35:10.068Z,16.64
2017-09-13T00:35:50.618Z,16.67
2017-09-13T00:36:31.179Z,16.7
2017-09-13T00:37:11.791Z,16.83
2017-09-13T00:37:52.328Z,16.78
2017-09-13T00:38:32.921Z,16.7
2017-09-13T00:39:13.595Z,16.71
2017-09-13T00:39:54.133Z,16.75
2017-09-13T00:40:34.607Z,16.64
2017-09-13T00:41:15.153Z,16.68
2017-09-13T00:41:55.794Z,16.67
2017-09-13T00:42:36.331Z,16.73
2017-09-13T00:43:16.857Z,16.64
2017-09-13T00:43:57.452Z,16.79
2017-09-13T00:44:37.982Z,16.71
2017-09-13T00:45:18.470Z,16.7
2017-09-13T00:45:59.021Z,16.66
2017-09-13T00:46:39.498Z,16.67
2017-09-13T00:47:20.057Z,16.76
2017-09-13T00:48:00.822Z,16.73
2017-09-13T00:48:41.374Z,16.73
2017-09-13T00:49:21.922Z,16.71
2017-09-13T00:50:02.475Z,16.68
2017-09-13T00:50:43.370Z,16.57
2017-09-13T00:51:23.913Z,16.61
2017-09-13T00:52:04.466Z,16.52
2017-09-13T00:52:45.023Z,16.61
2017-09-13T00:53:25.557Z,16.7
2017-09-13T00:54:06.105Z,16.64
2017-09-13T00:54:46.643Z,16.6
2017-09-13T00:55:27.158Z,16.63
2017-09-13T00:56:07.710Z,16.52
2017-09-13T00:56:48.211Z,16.63
2017-09-13T00:57:28.774Z,16.61
2017-09-13T00:58:09.287Z,16.67
2017-09-13T00:58:49.819Z,16.57
2017-09-13T00:59:30.387Z,16.6
2017-09-13T01:00:10.845Z,16.57
2017-09-13T01:00:51.431Z,16.57
2017-09-13T01:01:32.147Z,16.61
2017-09-13T01:02:12.687Z,16.57
2017-09-13T01:02:53.246Z,16.56
2017-09-13T01:03:34.540Z,16.57
2017-09-13T01:04:14.361Z,16.6
2017-09-13T01:04:54.917Z,16.64
2017-09-13T01:05:35.445Z,16.67
2017-09-13T01:06:16.029Z,16.61
2017-09-13T01:06:56.537Z,16.63
2017-09-13T01:07:37.050Z,16.6
2017-09-13T01:08:17.633Z,16.58
2017-09-13T01:08:58.219Z,16.56
2017-09-13T01:09:38.804Z,16.68
2017-09-13T01:10:19.301Z,16.78
2017-09-13T01:10:59.911Z,16.68
2017-09-13T01:11:40.485Z,16.49
2017-09-13T01:12:21.085Z,16.63
2017-09-13T01:13:01.676Z,16.68
2017-09-13T01:13:42.259Z,16.52
2017-09-13T01:14:22.812Z,16.64
2017-09-13T01:15:03.377Z,16.68
2017-09-13T01:15:43.929Z,16.73
2017-09-13T01:16:24.441Z,16.7
2017-09-13T01:17:04.990Z,16.71
2017-09-13T01:17:45.517Z,16.67
2017-09-13T01:18:26.067Z,16.7
2017-09-13T01:19:06.592Z,16.71
2017-09-13T01:19:47.164Z,16.68
2017-09-13T01:20:27.680Z,16.64
2017-09-13T01:21:08.249Z,16.52
2017-09-13T01:21:48.786Z,16.57
2017-09-13T01:22:29.320Z,16.52
2017-09-13T01:23:09.897Z,16.56
2017-09-13T01:23:50.440Z,16.5
2017-09-13T01:24:30.986Z,16.58
2017-09-13T01:25:11.548Z,16.57
2017-09-13T01:25:52.127Z,16.63
2017-09-13T01:26:32.672Z,16.64
2017-09-13T01:27:13.212Z,16.67
2017-09-13T01:27:53.809Z,16.68
2017-09-13T01:28:34.318Z,16.56
2017-09-13T01:29:14.817Z,16.57
2017-09-13T01:29:55.404Z,16.53
2017-09-13T01:30:35.940Z,16.53
2017-09-13T01:31:16.497Z,16.7
2017-09-13T01:31:57.043Z,16.64
2017-09-13T01:32:37.563Z,16.67
2017-09-13T01:33:18.144Z,16.68
2017-09-13T01:33:58.631Z,16.66
2017-09-13T01:34:39.183Z,16.67
2017-09-13T01:35:19.758Z,16.7
2017-09-13T01:36:00.292Z,16.6
2017-09-13T01:36:40.808Z,16.58
2017-09-13T01:37:21.337Z,16.68
2017-09-13T01:38:01.897Z,16.6
2017-09-13T01:38:42.438Z,16.7
2017-09-13T01:39:22.988Z,16.6
2017-09-13T01:40:03.526Z,16.6
2017-09-13T01:40:44.061Z,16.6
2017-09-13T01:41:24.622Z,16.58
2017-09-13T01:42:05.156Z,16.58
2017-09-13T01:42:45.669Z,16.6
2017-09-13T01:43:26.150Z,16.6
2017-09-13T01:44:06.724Z,16.48
2017-09-13T01:44:47.249Z,16.6
2017-09-13T01:45:27.814Z,16.58
2017-09-13T01:46:08.344Z,16.58
2017-09-13T01:46:48.875Z,16.6
2017-09-13T01:47:29.388Z,16.5
2017-09-13T01:48:09.934Z,16.63
2017-09-13T01:48:50.506Z,16.63
2017-09-13T01:49:31.003Z,16.63
2017-09-13T01:50:11.564Z,16.53
2017-09-13T01:50:52.163Z,16.64
2017-09-13T01:51:32.669Z,16.56
2017-09-13T01:52:13.233Z,16.58
2017-09-13T01:52:53.761Z,16.64
2017-09-13T01:53:34.302Z,16.71
2017-09-13T01:54:14.792Z,16.71
2017-09-13T01:54:55.340Z,16.81
2017-09-13T01:55:35.908Z,16.73
2017-09-13T01:56:16.509Z,16.73
2017-09-13T01:56:56.992Z,16.75
2017-09-13T01:57:37.586Z,16.71
2017-09-13T01:58:18.085Z,16.71
2017-09-13T01:58:58.682Z,16.57
2017-09-13T01:59:39.170Z,16.7
2017-09-13T02:00:19.743Z,16.68
2017-09-13T02:01:00.281Z,16.64
2017-09-13T02:01:40.850Z,16.6
2017-09-13T02:02:21.419Z,16.7
2017-09-13T02:03:01.943Z,16.63
2017-09-13T02:03:42.461Z,16.64
2017-09-13T02:04:23.042Z,16.66
2017-09-13T02:05:03.566Z,16.52
2017-09-13T02:05:44.104Z,16.57
2017-09-13T02:06:24.661Z,16.63
2017-09-13T02:07:05.173Z,16.71
2017-09-13T02:07:45.749Z,16.63
2017-09-13T02:08:26.333Z,16.66
2017-09-13T02:09:06.823Z,16.58
2017-09-13T02:09:47.375Z,16.67
2017-09-13T02:10:27.933Z,16.67
2017-09-13T02:11:08.475Z,16.53
2017-09-13T02:11:49.054Z,16.6
2017-09-13T02:12:29.547Z,16.7
2017-09-13T02:13:10.110Z,16.68
2017-09-13T02:13:50.630Z,16.68
2017-09-13T02:14:31.213Z,16.66
2017-09-13T02:15:11.713Z,16.58
2017-09-13T02:15:52.282Z,16.57
2017-09-13T02:16:32.829Z,16.56
2017-09-13T02:17:13.419Z,16.5
2017-09-13T02:17:53.868Z,16.64
2017-09-13T02:18:34.389Z,16.68
2017-09-13T02:19:14.947Z,16.7
2017-09-13T02:19:55.479Z,16.67
2017-09-13T02:20:35.991Z,16.63
2017-09-13T02:21:16.543Z,16.53
2017-09-13T02:21:57.107Z,16.6
2017-09-13T02:22:37.793Z,16.61
2017-09-13T02:23:18.228Z,16.58
2017-09-13T02:23:58.715Z,16.6
2017-09-13T02:24:39.268Z,16.68
2017-09-13T02:25:19.756Z,16.73
2017-09-13T02:26:00.342Z,16.73
2017-09-13T02:26:40.878Z,16.66
2017-09-13T02:27:21.426Z,16.6
2017-09-13T02:28:01.939Z,16.53
2017-09-13T02:28:42.495Z,16.68
2017-09-13T02:29:23.067Z,16.61
2017-09-13T02:30:03.597Z,16.58
2017-09-13T02:30:44.075Z,16.53
2017-09-13T02:31:24.649Z,16.67
2017-09-13T02:32:05.170Z,16.66
2017-09-13T02:32:45.827Z,16.7
2017-09-13T02:33:26.388Z,16.68
2017-09-13T02:34:06.844Z,16.81
2017-09-13T02:34:47.399Z,16.68
2017-09-13T02:35:27.931Z,16.71
2017-09-13T02:36:08.477Z,16.78
2017-09-13T02:36:49.036Z,16.7
2017-09-13T02:37:29.532Z,16.7
2017-09-13T02:38:10.113Z,16.78
2017-09-13T02:38:50.585Z,16.76
2017-09-13T02:39:31.253Z,16.71
2017-09-13T02:40:11.775Z,16.68
2017-09-13T02:40:52.317Z,16.75
2017-09-13T02:41:32.864Z,16.73
2017-09-13T02:42:13.463Z,16.68
2017-09-13T02:42:53.998Z,16.71
2017-09-13T02:43:34.522Z,16.67
2017-09-13T02:44:15.023Z,16.71
2017-09-13T02:44:55.566Z,16.67
2017-09-13T02:45:36.144Z,16.7
2017-09-13T02:46:16.657Z,16.67
2017-09-13T02:46:57.220Z,16.76
2017-09-13T02:47:37.786Z,16.75
2017-09-13T02:48:18.383Z,16.68
2017-09-13T02:48:58.907Z,16.75
2017-09-13T02:49:39.470Z,16.75
2017-09-13T02:50:19.977Z,16.73
2017-09-13T02:51:00.487Z,16.73
2017-09-13T02:51:41.026Z,16.76
2017-09-13T02:52:21.585Z,16.66
2017-09-13T02:53:02.118Z,16.64
2017-09-13T02:53:42.676Z,16.68
2017-09-13T02:54:23.184Z,16.6
2017-09-13T02:55:03.777Z,16.53
2017-09-13T02:55:44.268Z,16.64
2017-09-13T02:56:24.786Z,16.57
2017-09-13T02:57:05.321Z,16.6
2017-09-13T02:57:45.883Z,16.7
2017-09-13T02:58:26.430Z,16.76
2017-09-13T02:59:06.945Z,16.57
2017-09-13T02:59:47.534Z,16.68
2017-09-13T03:00:28.116Z,16.64
2017-09-13T03:01:08.667Z,16.61
2017-09-13T03:01:49.142Z,16.53
2017-09-13T03:02:29.714Z,16.57
2017-09-13T03:03:10.206Z,16.56
2017-09-13T03:03:50.803Z,16.64
2017-09-13T03:04:31.323Z,16.61
2017-09-13T03:05:11.852Z,16.68
2017-09-13T03:05:52.432Z,16.68
2017-09-13T03:06:32.935Z,16.7
2017-09-13T03:07:13.485Z,16.67
2017-09-13T03:07:54.019Z,16.63
2017-09-13T03:08:34.539Z,16.67
2017-09-13T03:09:15.246Z,16.73
2017-09-13T03:09:55.726Z,16.78
2017-09-13T03:10:36.349Z,16.79
2017-09-13T03:11:16.870Z,16.82
2017-09-13T03:11:57.416Z,16.83
2017-09-13T03:12:38.050Z,16.85
2017-09-13T03:13:18.579Z,16.86
2017-09-13T03:13:59.104Z,16.79
2017-09-13T03:14:39.659Z,16.78
2017-09-13T03:15:20.191Z,16.71
2017-09-13T03:16:00.707Z,16.76
2017-09-13T03:16:41.277Z,16.73
2017-09-13T03:17:21.826Z,16.75
2017-09-13T03:18:02.374Z,16.85
2017-09-13T03:18:42.945Z,16.68
2017-09-13T03:19:23.533Z,16.71
2017-09-13T03:20:04.068Z,16.82
2017-09-13T03:20:44.650Z,16.78
2017-09-13T03:21:25.168Z,16.76
2017-09-13T03:22:05.706Z,16.79
2017-09-13T03:22:46.252Z,16.73
2017-09-13T03:23:26.761Z,16.81
2017-09-13T03:24:07.316Z,16.73
2017-09-13T03:24:47.867Z,16.82
2017-09-13T03:25:28.406Z,16.82
2017-09-13T03:26:08.931Z,16.79
2017-09-13T03:26:49.453Z,16.82
2017-09-13T03:27:29.993Z,16.75
2017-09-13T03:28:10.539Z,16.82
2017-09-13T03:28:51.095Z,16.75
2017-09-13T03:29:31.645Z,16.76
2017-09-13T03:30:12.186Z,16.79
2017-09-13T03:30:52.773Z,16.81
2017-09-13T03:31:34.330Z,16.76
2017-09-13T03:32:14.976Z,16.79
2017-09-13T03:32:55.443Z,16.79
2017-09-13T03:33:35.957Z,16.83
2017-09-13T03:34:16.526Z,16.81
2017-09-13T03:34:57.028Z,16.81
2017-09-13T03:35:37.551Z,16.71
2017-09-13T03:36:18.131Z,16.78
2017-09-13T03:36:58.667Z,16.71
2017-09-13T03:37:39.218Z,16.76
2017-09-13T03:38:19.773Z,16.81
2017-09-13T03:39:00.338Z,16.81
2017-09-13T03:39:40.914Z,16.82
2017-09-13T03:40:21.366Z,16.81
2017-09-13T03:41:01.983Z,16.81
2017-09-13T03:41:42.459Z,16.79
2017-09-13T03:42:23.017Z,16.81
2017-09-13T03:43:03.615Z,16.79
2017-09-13T03:43:44.177Z,16.83
2017-09-13T03:44:24.714Z,16.71
2017-09-13T03:45:05.205Z,16.71
2017-09-13T03:45:45.726Z,16.82
2017-09-13T03:46:26.262Z,16.85
2017-09-13T03:47:06.811Z,16.79
2017-09-13T03:47:47.351Z,16.7
2017-09-13T03:48:27.915Z,16.81
2017-09-13T03:49:08.456Z,16.78
2017-09-13T03:49:48.975Z,16.81
2017-09-13T03:50:29.604Z,16.86
2017-09-13T03:51:10.116Z,16.76
2017-09-13T03:51:50.638Z,16.75
2017-09-13T03:52:31.191Z,16.76
2017-09-13T03:53:11.671Z,16.71
2017-09-13T03:53:52.266Z,16.79
2017-09-13T03:54:32.768Z,16.7
2017-09-13T03:55:13.302Z,16.68
2017-09-13T03:55:53.874Z,16.68
2017-09-13T03:56:34.424Z,16.68
2017-09-13T03:57:14.967Z,16.68
2017-09-13T03:57:55.487Z,16.63
2017-09-13T03:58:36.005Z,16.76
2017-09-13T03:59:16.571Z,16.76
2017-09-13T03:59:57.092Z,16.81
2017-09-13T04:00:37.639Z,16.79
2017-09-13T04:01:18.186Z,16.81
2017-09-13T04:01:58.717Z,16.85
2017-09-13T04:02:39.212Z,16.78
2017-09-13T04:03:19.811Z,16.76
2017-09-13T04:04:00.329Z,16.81
2017-09-13T04:04:40.851Z,16.83
2017-09-13T04:05:21.398Z,16.81
2017-09-13T04:06:01.982Z,16.76
2017-09-13T04:06:42.504Z,16.83
2017-09-13T04:07:23.079Z,16.79
2017-09-13T04:08:03.606Z,16.82
2017-09-13T04:08:44.140Z,16.75
2017-09-13T04:09:24.716Z,16.78
2017-09-13T04:10:05.270Z,16.76
2017-09-13T04:10:45.836Z,16.88
2017-09-13T04:11:26.402Z,16.88
2017-09-13T04:12:06.929Z,16.85
2017-09-13T04:12:47.480Z,16.97
2017-09-13T04:13:28.007Z,16.88
2017-09-13T04:14:08.574Z,16.86
2017-09-13T04:14:49.097Z,16.91
2017-09-13T04:15:29.619Z,16.93
2017-09-13T04:16:10.224Z,16.96
2017-09-13T04:16:50.784Z,17.01
2017-09-13T04:17:31.301Z,16.94
2017-09-13T04:18:11.885Z,16.96
2017-09-13T04:18:52.385Z,16.98
2017-09-13T04:19:32.927Z,17.03
2017-09-13T04:20:13.447Z,17.04
2017-09-13T04:20:53.989Z,16.97
2017-09-13T04:21:34.556Z,16.94
2017-09-13T04:22:15.082Z,16.96
2017-09-13T04:22:55.575Z,17
2017-09-13T04:23:36.156Z,16.91
2017-09-13T04:24:16.659Z,16.97
2017-09-13T04:24:57.208Z,16.96
2017-09-13T04:25:37.744Z,16.94
2017-09-13T04:26:18.292Z,16.98
2017-09-13T04:26:58.847Z,16.91
2017-09-13T04:27:39.403Z,16.86
2017-09-13T04:28:19.875Z,16.88
2017-09-13T04:29:00.432Z,17.04
2017-09-13T04:29:40.933Z,16.94
2017-09-13T04:30:21.479Z,16.98
2017-09-13T04:31:02.001Z,17.04
2017-09-13T04:31:42.553Z,17.07
2017-09-13T04:32:23.137Z,17.11
2017-09-13T04:33:03.661Z,17.06
2017-09-13T04:33:44.258Z,17.06
2017-09-13T04:34:24.759Z,17.01
2017-09-13T04:35:05.364Z,17.01
2017-09-13T04:35:45.872Z,17.11
2017-09-13T04:36:26.393Z,17.15
2017-09-13T04:37:06.930Z,17.16
2017-09-13T04:37:47.460Z,17.11
2017-09-13T04:38:28.033Z,17.03
2017-09-13T04:39:08.552Z,17.18
2017-09-13T04:39:49.123Z,17.19
2017-09-13T04:40:29.654Z,17.15
2017-09-13T04:41:10.160Z,17.23
2017-09-13T04:41:50.728Z,17.18
2017-09-13T04:42:31.242Z,17.3
2017-09-13T04:43:11.763Z,17.23
2017-09-13T04:43:52.296Z,17.21
2017-09-13T04:44:32.896Z,17.16
2017-09-13T04:45:13.420Z,17.21
2017-09-13T04:45:53.942Z,17.21
2017-09-13T04:46:34.502Z,17.23
2017-09-13T04:47:15.019Z,17.22
2017-09-13T04:47:55.556Z,17.23
2017-09-13T04:48:36.228Z,17.23
2017-09-13T04:49:16.771Z,17.3
2017-09-13T04:49:57.288Z,17.23
2017-09-13T04:50:37.797Z,17.23
2017-09-13T04:51:18.418Z,17.36
2017-09-13T04:51:58.939Z,17.34
2017-09-13T04:52:39.536Z,17.34
2017-09-13T04:53:20.086Z,17.37
2017-09-13T04:54:00.621Z,17.41
2017-09-13T04:54:41.200Z,17.36
2017-09-13T04:55:21.754Z,17.38
2017-09-13T04:56:02.255Z,17.43
2017-09-13T04:56:42.830Z,17.43
2017-09-13T04:57:23.320Z,17.44
2017-09-13T04:58:03.951Z,17.44
2017-09-13T04:58:44.542Z,17.43
2017-09-13T04:59:25.156Z,17.44
2017-09-13T05:00:05.676Z,17.44
2017-09-13T05:00:46.224Z,17.48
2017-09-13T05:01:26.749Z,17.46
2017-09-13T05:02:07.262Z,17.38
2017-09-13T05:02:47.835Z,17.51
2017-09-13T05:03:28.405Z,17.44
2017-09-13T05:04:08.917Z,17.54
2017-09-13T05:04:49.490Z,17.43
2017-09-13T05:05:30.021Z,17.48
2017-09-13T05:06:10.570Z,17.56
2017-09-13T05:06:51.092Z,17.46
2017-09-13T05:07:31.602Z,17.43
2017-09-13T05:08:12.218Z,17.41
2017-09-13T05:08:52.690Z,17.51
2017-09-13T05:09:33.253Z,17.58
2017-09-13T05:10:13.823Z,17.44
2017-09-13T05:10:54.417Z,17.48
2017-09-13T05:11:34.920Z,17.46
2017-09-13T05:12:15.508Z,17.54
2017-09-13T05:12:56.074Z,17.46
2017-09-13T05:13:36.614Z,17.52
2017-09-13T05:14:17.161Z,17.48
2017-09-13T05:14:57.619Z,17.52
2017-09-13T05:15:38.168Z,17.52
2017-09-13T05:16:18.712Z,17.56
2017-09-13T05:16:59.232Z,17.54
2017-09-13T05:17:39.752Z,17.55
2017-09-13T05:18:20.323Z,17.55
2017-09-13T05:19:00.867Z,17.56
2017-09-13T05:19:41.425Z,17.56
2017-09-13T05:20:21.961Z,17.55
2017-09-13T05:21:02.524Z,17.54
2017-09-13T05:21:43.074Z,17.58
2017-09-13T05:22:23.659Z,17.58
2017-09-13T05:23:04.137Z,17.54
2017-09-13T05:23:44.714Z,17.64
2017-09-13T05:24:25.241Z,17.62
2017-09-13T05:25:05.820Z,17.72
2017-09-13T05:25:46.434Z,17.78
2017-09-13T05:26:26.960Z,17.71
2017-09-13T05:27:07.540Z,17.75
2017-09-13T05:27:48.166Z,17.87
2017-09-13T05:28:28.766Z,17.87
2017-09-13T05:29:09.341Z,17.86
2017-09-13T05:29:49.848Z,17.84
2017-09-13T05:30:32.457Z,17.78
2017-09-13T05:31:12.984Z,17.89
2017-09-13T05:31:53.538Z,17.95
2017-09-13T05:32:34.117Z,17.9
2017-09-13T05:33:14.681Z,17.87
2017-09-13T05:33:55.246Z,17.93
2017-09-13T05:34:35.808Z,18.02
2017-09-13T05:35:16.318Z,18.08
2017-09-13T05:35:57.086Z,18.15
2017-09-13T05:36:37.417Z,18.21
2017-09-13T05:37:17.961Z,18.17
2017-09-13T05:37:58.496Z,18.14
2017-09-13T05:38:39.258Z,18.21
2017-09-13T05:39:19.761Z,18.11
2017-09-13T05:40:00.741Z,17.99
2017-09-13T05:40:41.585Z,18.11
2017-09-13T05:41:22.200Z,18.03
2017-09-13T05:42:02.887Z,18.03
2017-09-13T05:42:43.582Z,18.12
2017-09-13T05:43:24.138Z,18.18
2017-09-13T05:44:04.993Z,18.2
2017-09-13T05:44:45.575Z,18.33
2017-09-13T05:45:26.236Z,18.27
2017-09-13T05:46:07.961Z,18.39
2017-09-13T05:46:48.482Z,18.27
2017-09-13T05:47:29.059Z,18.23
2017-09-13T05:48:09.841Z,18.17
2017-09-13T05:48:50.746Z,18.18
2017-09-13T05:49:31.288Z,18.15
2017-09-13T05:50:11.860Z,18.15
2017-09-13T05:50:52.384Z,18.08
2017-09-13T05:51:32.913Z,18
2017-09-13T05:52:13.511Z,17.99
2017-09-13T05:52:54.080Z,18
2017-09-13T05:53:34.597Z,18.1
2017-09-13T05:54:15.153Z,18.21
2017-09-13T05:54:55.732Z,18.17
2017-09-13T05:55:36.249Z,17.97
2017-09-13T05:56:16.797Z,18.11
2017-09-13T05:56:57.335Z,18.07
2017-09-13T05:57:37.882Z,18.12
2017-09-13T05:58:18.375Z,18.15
2017-09-13T05:58:58.910Z,18.14
2017-09-13T05:59:39.470Z,18
2017-09-13T06:00:20.030Z,17.99
2017-09-13T06:01:00.551Z,18.1
2017-09-13T06:01:41.148Z,18.11
2017-09-13T06:02:21.676Z,18.08
2017-09-13T06:03:02.173Z,18.12
2017-09-13T06:03:42.757Z,18.07
2017-09-13T06:04:23.346Z,18.1
2017-09-13T06:05:03.873Z,18.08
2017-09-13T06:05:44.378Z,18.2
2017-09-13T06:06:24.925Z,18.14
2017-09-13T06:07:05.493Z,18.14
2017-09-13T06:07:46.058Z,18.27
2017-09-13T06:08:26.608Z,18.2
2017-09-13T06:09:07.181Z,18.18
2017-09-13T06:09:47.733Z,18.2
2017-09-13T06:10:28.300Z,17.99
2017-09-13T06:11:08.991Z,18.14
2017-09-13T06:11:49.589Z,18.1
2017-09-13T06:12:30.205Z,18.29
2017-09-13T06:13:10.873Z,18.44
2017-09-13T06:13:51.413Z,18.41
2017-09-13T06:14:31.943Z,18.37
2017-09-13T06:15:12.500Z,18.37
2017-09-13T06:15:53.108Z,18.3
2017-09-13T06:16:33.666Z,18.35
2017-09-13T06:17:14.227Z,18.33
2017-09-13T06:17:54.809Z,18.12
2017-09-13T06:18:35.551Z,18.35
2017-09-13T06:19:16.076Z,18.3
2017-09-13T06:19:56.626Z,18.21
2017-09-13T06:20:37.200Z,18.36
2017-09-13T06:21:17.700Z,18.3
2017-09-13T06:21:58.208Z,18.07
2017-09-13T06:22:38.726Z,18.1
2017-09-13T06:23:19.379Z,18.29
2017-09-13T06:23:59.900Z,18.26
2017-09-13T06:24:40.739Z,18.37
2017-09-13T06:25:21.305Z,18.32
2017-09-13T06:26:01.855Z,18.32
2017-09-13T06:26:42.423Z,18.41
2017-09-13T06:27:23.026Z,18.37
2017-09-13T06:28:03.509Z,18.3
2017-09-13T06:28:44.120Z,18.44
2017-09-13T06:29:24.628Z,18.37
2017-09-13T06:30:05.135Z,18.45
2017-09-13T06:30:45.770Z,18.5
2017-09-13T06:31:26.302Z,18.6
2017-09-13T06:32:06.841Z,18.52
2017-09-13T06:32:47.363Z,18.58
2017-09-13T06:33:27.969Z,18.52
2017-09-13T06:34:08.525Z,18.6
2017-09-13T06:34:49.049Z,18.58
2017-09-13T06:35:29.581Z,18.52
2017-09-13T06:36:10.149Z,18.57
2017-09-13T06:36:50.686Z,18.48
2017-09-13T06:37:31.172Z,18.57
2017-09-13T06:38:11.751Z,18.45
2017-09-13T06:38:52.270Z,18.3
2017-09-13T06:39:32.848Z,18.32
2017-09-13T06:40:13.402Z,18.25
2017-09-13T06:40:53.937Z,18.39
2017-09-13T06:41:34.461Z,18.27
2017-09-13T06:42:15.100Z,18.41
2017-09-13T06:42:56.242Z,18.36
2017-09-13T06:43:36.785Z,18.37
2017-09-13T06:44:17.352Z,18.3
2017-09-13T06:44:57.895Z,18.29
2017-09-13T06:45:38.422Z,18.35
2017-09-13T06:46:18.960Z,18.33
2017-09-13T06:46:59.486Z,18.3
2017-09-13T06:47:40.079Z,18.25
2017-09-13T06:48:20.621Z,18.15
2017-09-13T06:49:01.198Z,18.12
2017-09-13T06:49:41.737Z,18.25
2017-09-13T06:50:22.285Z,18.1
2017-09-13T06:51:02.849Z,18.23
2017-09-13T06:51:43.340Z,18.07
2017-09-13T06:52:23.871Z,17.99
2017-09-13T06:53:04.399Z,18
2017-09-13T06:53:44.949Z,17.84
2017-09-13T06:54:25.465Z,17.96
2017-09-13T06:55:06.012Z,17.99
2017-09-13T06:55:46.601Z,18
2017-09-13T06:56:27.125Z,18.25
2017-09-13T06:57:07.707Z,18.32
2017-09-13T06:57:48.301Z,18.39
2017-09-13T06:58:28.838Z,18.39
2017-09-13T06:59:09.347Z,18.41
2017-09-13T06:59:49.906Z,18.42
2017-09-13T07:00:30.428Z,18.45
2017-09-13T07:01:11.021Z,18.45
2017-09-13T07:01:51.505Z,18.52
2017-09-13T07:02:32.710Z,18.57
2017-09-13T07:03:13.217Z,18.62
2017-09-13T07:03:53.746Z,18.63
2017-09-13T07:04:34.619Z,18.62
2017-09-13T07:05:14.831Z,18.75
2017-09-13T07:05:55.388Z,18.84
2017-09-13T07:06:35.950Z,18.67
2017-09-13T07:07:16.531Z,18.62
2017-09-13T07:07:57.073Z,18.57
2017-09-13T07:08:38.477Z,18.63
2017-09-13T07:09:18.201Z,18.58
2017-09-13T07:09:58.715Z,18.63
2017-09-13T07:10:39.229Z,18.69
2017-09-13T07:11:21.281Z,18.75
2017-09-13T07:12:01.818Z,18.9
2017-09-13T07:12:42.360Z,18.6
2017-09-13T07:13:23.080Z,18.5
2017-09-13T07:14:03.957Z,18.69
2017-09-13T07:14:44.479Z,18.51
2017-09-13T07:15:25.069Z,18.63
2017-09-13T07:16:06.069Z,18.75
2017-09-13T07:16:46.620Z,18.69
2017-09-13T07:17:27.159Z,18.73
2017-09-13T07:18:07.684Z,18.7
2017-09-13T07:18:48.226Z,18.7
2017-09-13T07:19:28.825Z,18.78
2017-09-13T07:20:09.577Z,18.85
2017-09-13T07:20:49.989Z,19
2017-09-13T07:21:30.505Z,18.65
2017-09-13T07:22:11.076Z,18.72
2017-09-13T07:22:51.788Z,18.88
2017-09-13T07:23:32.327Z,18.88
2017-09-13T07:24:12.820Z,18.91
2017-09-13T07:24:53.663Z,19.02
2017-09-13T07:25:34.190Z,19.19
2017-09-13T07:26:14.726Z,19.02
2017-09-13T07:26:55.447Z,18.88
2017-09-13T07:27:35.973Z,18.87
2017-09-13T07:28:16.547Z,19.02
2017-09-13T07:28:57.059Z,18.87
2017-09-13T07:29:37.622Z,18.66
2017-09-13T07:30:18.131Z,18.9
2017-09-13T07:30:58.864Z,18.78
2017-09-13T07:31:39.548Z,18.65
2017-09-13T07:32:20.129Z,18.5
2017-09-13T07:33:00.643Z,18.58
2017-09-13T07:33:41.148Z,18.54
2017-09-13T07:34:21.685Z,18.51
2017-09-13T07:35:02.726Z,18.44
2017-09-13T07:35:43.254Z,18.63
2017-09-13T07:36:24.243Z,18.63
2017-09-13T07:37:05.292Z,18.66
2017-09-13T07:37:45.858Z,18.7
2017-09-13T07:38:26.352Z,18.58
2017-09-13T07:39:07.220Z,18.55
2017-09-13T07:39:47.747Z,18.45
2017-09-13T07:40:28.270Z,18.52
2017-09-13T07:41:08.806Z,18.58
2017-09-13T07:41:49.338Z,18.62
2017-09-13T07:42:29.929Z,18.65
2017-09-13T07:43:10.481Z,18.7
2017-09-13T07:43:51.008Z,18.76
2017-09-13T07:44:32.124Z,18.73
2017-09-13T07:45:12.680Z,18.9
2017-09-13T07:45:53.224Z,18.78
2017-09-13T07:46:33.827Z,18.84
2017-09-13T07:47:14.331Z,18.85
2017-09-13T07:47:54.939Z,18.73
2017-09-13T07:48:35.400Z,18.8
2017-09-13T07:49:16.006Z,18.7
2017-09-13T07:49:56.681Z,18.78
2017-09-13T07:50:37.777Z,18.69
2017-09-13T07:51:18.444Z,18.69
2017-09-13T07:51:59.189Z,18.72
2017-09-13T07:52:39.757Z,18.84
2017-09-13T07:53:20.292Z,19
2017-09-13T07:54:00.856Z,19.02
2017-09-13T07:54:41.366Z,19.04
2017-09-13T07:55:21.871Z,19.07
2017-09-13T07:56:02.430Z,19.06
2017-09-13T07:56:42.958Z,19.02
2017-09-13T07:57:23.474Z,18.99
2017-09-13T07:58:04.063Z,18.84
2017-09-13T07:58:44.621Z,19.08
2017-09-13T07:59:25.235Z,19.16
2017-09-13T08:00:05.824Z,19.02
2017-09-13T08:00:46.354Z,18.81
2017-09-13T08:01:27.156Z,18.84
2017-09-13T08:02:07.689Z,18.88
2017-09-13T08:02:48.233Z,19.06
2017-09-13T08:03:28.718Z,18.91
2017-09-13T08:04:09.258Z,19.02
2017-09-13T08:04:49.834Z,19
2017-09-13T08:05:30.345Z,19.16
2017-09-13T08:06:10.885Z,19.23
2017-09-13T08:06:51.391Z,19.19
2017-09-13T08:07:31.935Z,19.1
2017-09-13T08:08:12.526Z,19.08
2017-09-13T08:08:53.073Z,19.1
2017-09-13T08:09:33.589Z,19.02
2017-09-13T08:10:14.138Z,19.02
2017-09-13T08:10:54.699Z,19.11
2017-09-13T08:11:35.258Z,19.32
2017-09-13T08:12:15.777Z,19.25
2017-09-13T08:12:56.326Z,19.22
2017-09-13T08:13:36.900Z,19.25
2017-09-13T08:14:17.409Z,19.25
2017-09-13T08:14:58.645Z,19.22
2017-09-13T08:15:39.186Z,19.33
2017-09-13T08:16:19.742Z,19.25
2017-09-13T08:17:00.311Z,19.26
2017-09-13T08:17:40.856Z,19.25
2017-09-13T08:18:21.390Z,19.14
2017-09-13T08:19:01.909Z,19.23
2017-09-13T08:19:42.466Z,19.33
2017-09-13T08:20:22.979Z,19.47
2017-09-13T08:21:03.532Z,19.44
2017-09-13T08:21:44.069Z,19.39
2017-09-13T08:22:24.620Z,19.37
2017-09-13T08:23:05.133Z,19.39
2017-09-13T08:23:45.701Z,19.33
2017-09-13T08:24:26.309Z,19.36
2017-09-13T08:25:07.490Z,19.4
2017-09-13T08:25:48.002Z,19.25
2017-09-13T08:26:28.645Z,19.25
2017-09-13T08:27:09.176Z,19.29
2017-09-13T08:27:49.689Z,19.22
2017-09-13T08:28:30.681Z,19.36
2017-09-13T08:29:11.241Z,19.48
2017-09-13T08:29:51.783Z,19.54
2017-09-13T08:30:32.300Z,19.47
2017-09-13T08:31:12.857Z,19.63
2017-09-13T08:31:53.429Z,19.33
2017-09-13T08:32:33.959Z,19.4
2017-09-13T08:33:14.518Z,19.39
2017-09-13T08:33:55.105Z,19.65
2017-09-13T08:34:35.666Z,19.58
2017-09-13T08:35:16.172Z,19.48
2017-09-13T08:35:56.705Z,19.61
2017-09-13T08:36:38.195Z,19.8
2017-09-13T08:37:18.684Z,19.73
2017-09-13T08:37:59.283Z,19.73
2017-09-13T08:38:39.790Z,19.77
2017-09-13T08:39:20.611Z,19.76
2017-09-13T08:40:01.272Z,19.84
2017-09-13T08:40:41.899Z,19.83
2017-09-13T08:41:22.444Z,19.92
2017-09-13T08:42:03.004Z,19.91
2017-09-13T08:42:43.643Z,19.96
2017-09-13T08:43:24.236Z,20.1
2017-09-13T08:44:05.704Z,19.95
2017-09-13T08:44:46.292Z,19.88